Time;durP1;ratioP1;P1;durP2;ratioP2;P2;SDS_P1;SDS_P2;PMS_P1;PMS_P2;Temp;Humidity;BMP_temperature;BMP_pressure;BME280_temperature;BME280_humidity;BME280_pressure;Samples;Min_cycle;Max_cycle;Signal;HPM_P1;HPM_P2
2021/06/16 00:02:02;;;;;;;3.93;3.60;;;15.20;99.90;;;;;;6321747;28;20311;-71
2021/06/16 00:05:06;;;;;;;4.40;3.40;;;15.20;99.90;;;;;;6321634;28;20186;-71
2021/06/16 00:08:10;;;;;;;3.43;3.10;;;15.10;99.90;;;;;;6321770;28;20186;-71
2021/06/16 00:11:12;;;;;;;3.53;3.23;;;15.10;99.90;;;;;;6321185;28;20620;-71
2021/06/16 00:14:18;;;;;;;5.73;3.80;;;15.00;99.90;;;;;;6320349;28;20335;-71
2021/06/16 00:17:20;;;;;;;5.40;3.93;;;15.00;99.90;;;;;;6319803;28;20271;-71
2021/06/16 00:20:24;;;;;;;4.70;3.40;;;14.90;99.90;;;;;;6321226;28;20227;-71
2021/06/16 00:23:26;;;;;;;3.93;3.60;;;14.90;99.90;;;;;;6320231;28;20194;-71
2021/06/16 00:26:28;;;;;;;4.43;3.30;;;14.90;99.90;;;;;;6321077;28;20675;-71
2021/06/16 00:29:30;;;;;;;6.33;3.90;;;14.90;99.90;;;;;;6321334;28;20868;-71
2021/06/16 00:32:32;;;;;;;4.67;3.70;;;14.90;99.90;;;;;;6319827;28;20204;-71
2021/06/16 00:35:35;;;;;;;5.70;3.80;;;14.80;99.90;;;;;;6320776;28;20196;-71
2021/06/16 00:38:37;;;;;;;5.27;4.07;;;14.70;99.90;;;;;;6321149;28;20301;-71
2021/06/16 00:41:39;;;;;;;4.63;4.17;;;14.70;99.90;;;;;;6319394;28;20202;-71
2021/06/16 00:44:41;;;;;;;4.67;3.93;;;14.70;99.90;;;;;;6319677;28;20258;-71
2021/06/16 00:47:44;;;;;;;4.50;4.03;;;14.70;99.90;;;;;;6319445;28;20285;-71
2021/06/16 00:50:47;;;;;;;4.03;3.67;;;14.60;99.90;;;;;;6319665;28;20194;-71
2021/06/16 00:53:49;;;;;;;4.17;3.67;;;14.60;99.90;;;;;;6320717;28;20190;-71
2021/06/16 00:56:51;;;;;;;4.50;4.10;;;14.60;99.90;;;;;;6320397;28;20178;-71
2021/06/16 01:00:08;;;;;;;5.90;3.87;;;14.60;99.90;;;;;;6293961;28;20218;-71
2021/06/16 01:03:14;;;;;;;5.50;4.00;;;14.50;99.90;;;;;;6310651;28;20190;-71
2021/06/16 01:06:25;;;;;;;4.17;3.27;;;14.60;99.90;;;;;;6294556;28;20662;-71
2021/06/16 01:09:37;;;;;;;4.47;3.77;;;14.60;99.90;;;;;;6294117;28;20198;-71
2021/06/16 01:12:59;;;;;;;4.13;3.73;;;14.70;99.90;;;;;;6293590;28;20563;-71
2021/06/16 01:16:28;;;;;;;4.23;3.83;;;14.70;99.90;;;;;;6317487;28;20205;-71
2021/06/16 01:19:52;;;;;;;5.23;3.70;;;14.80;99.90;;;;;;6318423;28;20228;-71
2021/06/16 01:23:20;;;;;;;4.40;3.93;;;14.80;99.90;;;;;;6320331;28;20254;-71
2021/06/16 01:26:29;;;;;;;5.57;3.53;;;14.80;99.90;;;;;;6318727;28;20181;-71
2021/06/16 01:29:37;;;;;;;4.40;4.00;;;14.80;99.90;;;;;;6319294;28;20666;-71
2021/06/16 01:32:39;;;;;;;4.37;3.63;;;14.80;99.90;;;;;;6319531;28;20189;-71
2021/06/16 01:35:46;;;;;;;4.33;3.83;;;14.80;99.90;;;;;;6318600;28;20198;-71
2021/06/16 01:38:49;;;;;;;5.30;3.83;;;14.80;99.90;;;;;;6320278;28;20174;-71
2021/06/16 01:41:55;;;;;;;4.40;3.80;;;14.70;99.90;;;;;;6318147;28;20217;-71
2021/06/16 01:44:59;;;;;;;6.07;3.90;;;14.70;99.90;;;;;;6301892;28;20207;-71
2021/06/16 01:48:06;;;;;;;5.07;3.93;;;14.60;99.90;;;;;;6319222;28;20185;-71
2021/06/16 01:51:10;;;;;;;8.43;3.90;;;14.70;99.90;;;;;;6318609;28;20190;-71
2021/06/16 01:54:14;;;;;;;4.70;4.10;;;14.60;99.90;;;;;;6302561;28;20692;-72
2021/06/16 01:57:17;;;;;;;4.07;3.60;;;14.60;99.90;;;;;;6317969;28;20197;-72
2021/06/16 02:00:20;;;;;;;4.10;3.70;;;14.60;99.90;;;;;;6319858;28;20288;-72
2021/06/16 02:03:23;;;;;;;4.87;4.07;;;14.60;99.90;;;;;;6317857;28;20558;-71
2021/06/16 02:06:28;;;;;;;4.33;3.33;;;14.60;99.90;;;;;;6319642;28;20178;-71
2021/06/16 02:09:34;;;;;;;5.83;4.03;;;14.60;99.90;;;;;;6319219;28;20178;-71
2021/06/16 02:12:39;;;;;;;4.50;3.47;;;14.60;99.90;;;;;;6318210;28;20649;-71
2021/06/16 02:16:08;;;;;;;4.50;3.87;;;14.60;99.90;;;;;;6319611;28;20654;-71
2021/06/16 02:19:24;;;;;;;4.20;3.80;;;14.50;99.90;;;;;;6319077;28;20177;-71
2021/06/16 02:22:27;;;;;;;4.73;3.70;;;14.50;99.90;;;;;;6319240;28;20665;-71
2021/06/16 02:25:30;;;;;;;6.20;4.17;;;14.50;99.90;;;;;;6319178;28;20194;-71
2021/06/16 02:28:32;;;;;;;4.37;3.97;;;14.50;99.90;;;;;;6319013;28;20198;-72
2021/06/16 02:31:39;;;;;;;4.83;4.27;;;14.50;99.90;;;;;;6319355;28;20199;-71
2021/06/16 02:34:41;;;;;;;4.20;3.80;;;14.50;99.90;;;;;;6319048;28;20189;-71
2021/06/16 02:37:52;;;;;;;4.80;3.70;;;14.50;99.90;;;;;;6318806;28;20209;-71
2021/06/16 02:40:56;;;;;;;4.30;3.37;;;14.50;99.90;;;;;;6323455;28;20560;-71
2021/06/16 02:43:59;;;;;;;4.17;3.77;;;14.40;99.90;;;;;;6324359;28;20182;-71
2021/06/16 02:47:04;;;;;;;4.13;3.73;;;14.30;99.90;;;;;;6324473;28;20235;-71
2021/06/16 02:50:11;;;;;;;3.67;3.33;;;14.20;99.90;;;;;;6323138;28;20331;-71
2021/06/16 02:53:17;;;;;;;5.10;3.90;;;14.20;99.90;;;;;;6323698;28;20252;-71
2021/06/16 02:56:22;;;;;;;6.80;4.10;;;14.10;99.90;;;;;;6322108;28;20181;-71
2021/06/16 02:59:26;;;;;;;4.93;3.70;;;14.10;99.90;;;;;;6322311;28;20208;-70
2021/06/16 03:02:29;;;;;;;4.70;3.90;;;14.10;99.90;;;;;;6321462;28;20740;-71
2021/06/16 03:05:32;;;;;;;4.43;4.03;;;14.10;99.90;;;;;;6323591;28;20648;-71
2021/06/16 03:08:36;;;;;;;5.10;4.53;;;14.10;99.90;;;;;;6321536;28;20194;-71
2021/06/16 03:11:39;;;;;;;4.80;4.30;;;14.10;99.90;;;;;;6321443;28;20249;-71
2021/06/16 03:14:42;;;;;;;4.90;4.40;;;14.00;99.90;;;;;;6322697;28;20201;-71
2021/06/16 03:17:47;;;;;;;6.87;4.70;;;14.00;99.90;;;;;;6322476;28;20193;-71
2021/06/16 03:20:52;;;;;;;6.33;4.13;;;14.00;99.90;;;;;;6321776;28;20206;-71
2021/06/16 03:23:55;;;;;;;6.43;4.50;;;14.00;99.90;;;;;;6322263;28;20517;-71
2021/06/16 03:26:58;;;;;;;4.47;4.07;;;14.00;99.90;;;;;;6321363;28;20193;-71
2021/06/16 03:30:04;;;;;;;4.63;4.23;;;14.00;99.90;;;;;;6322746;28;20178;-71
2021/06/16 03:33:08;;;;;;;5.23;4.63;;;14.10;99.90;;;;;;6320792;28;20611;-71
2021/06/16 03:36:12;;;;;;;5.33;4.37;;;14.10;99.90;;;;;;6321109;28;20226;-71
2021/06/16 03:39:15;;;;;;;4.87;4.10;;;14.20;99.90;;;;;;6321909;28;20236;-71
2021/06/16 03:42:20;;;;;;;5.37;4.47;;;14.30;99.90;;;;;;6322064;28;20263;-71
2021/06/16 03:45:23;;;;;;;5.00;4.00;;;14.30;99.90;;;;;;6321689;28;20536;-71
2021/06/16 03:48:27;;;;;;;4.37;3.97;;;14.30;99.90;;;;;;6322170;28;20186;-71
2021/06/16 03:51:30;;;;;;;4.83;4.37;;;14.30;99.90;;;;;;6321304;28;20193;-71
2021/06/16 03:54:34;;;;;;;4.53;4.10;;;14.30;99.90;;;;;;6320319;28;20658;-71
2021/06/16 03:57:38;;;;;;;4.87;4.47;;;14.30;99.90;;;;;;6320677;28;20202;-71
2021/06/16 04:00:41;;;;;;;6.03;3.97;;;14.30;99.90;;;;;;6321194;28;20208;-71
2021/06/16 04:03:44;;;;;;;5.40;4.10;;;14.40;99.90;;;;;;6321700;28;20673;-71
2021/06/16 04:06:47;;;;;;;4.83;4.33;;;14.40;99.90;;;;;;6321615;28;20564;-71
2021/06/16 04:09:52;;;;;;;4.53;4.00;;;14.50;99.90;;;;;;6321233;28;20198;-71
2021/06/16 04:12:55;;;;;;;5.03;4.13;;;14.50;99.90;;;;;;6321439;28;20535;-71
2021/06/16 04:15:57;;;;;;;5.87;4.93;;;14.60;99.90;;;;;;6320920;28;20617;-71
2021/06/16 04:19:00;;;;;;;4.43;4.03;;;14.70;99.90;;;;;;6320002;28;20204;-71
2021/06/16 04:22:02;;;;;;;7.27;4.83;;;14.70;99.90;;;;;;6319947;28;20205;-71
2021/06/16 04:25:09;;;;;;;5.53;4.00;;;14.80;99.90;;;;;;6320767;28;20205;-71
2021/06/16 04:28:11;;;;;;;5.80;4.10;;;14.80;99.90;;;;;;6320953;28;20312;-71
2021/06/16 04:31:13;;;;;;;5.57;4.47;;;14.80;99.90;;;;;;6319350;28;20556;-71
2021/06/16 04:34:16;;;;;;;4.30;3.90;;;14.80;99.90;;;;;;6319616;28;20182;-71
2021/06/16 04:37:18;;;;;;;6.77;4.80;;;14.90;99.90;;;;;;6320662;28;20213;-71
2021/06/16 04:40:20;;;;;;;6.03;4.67;;;14.90;99.90;;;;;;6319676;28;20202;-71
2021/06/16 04:43:23;;;;;;;4.60;4.20;;;14.90;99.90;;;;;;6319255;28;20186;-71
2021/06/16 04:46:26;;;;;;;6.53;4.47;;;15.00;99.90;;;;;;6318933;28;20194;-71
2021/06/16 04:49:30;;;;;;;5.23;4.73;;;14.90;99.90;;;;;;6319704;28;20577;-71
2021/06/16 04:52:32;;;;;;;6.27;4.07;;;14.90;99.90;;;;;;6320125;28;20641;-71
2021/06/16 04:55:35;;;;;;;5.57;4.33;;;14.90;99.90;;;;;;6319307;28;20713;-71
2021/06/16 04:58:37;;;;;;;5.10;4.60;;;14.90;99.90;;;;;;6318910;28;20208;-71
2021/06/16 05:01:39;;;;;;;8.00;5.07;;;14.90;99.90;;;;;;6319684;28;20742;-71
2021/06/16 05:04:42;;;;;;;4.90;4.40;;;15.00;99.90;;;;;;6320206;28;20208;-71
2021/06/16 05:07:44;;;;;;;6.80;4.20;;;15.10;99.90;;;;;;6319903;28;20183;-71
2021/06/16 05:10:47;;;;;;;5.50;4.47;;;15.30;99.90;;;;;;6319923;28;20322;-71
2021/06/16 05:13:49;;;;;;;5.87;4.17;;;15.40;99.90;;;;;;6320299;28;20633;-71
2021/06/16 05:16:54;;;;;;;5.53;4.70;;;15.50;99.90;;;;;;6319733;28;20186;-71
2021/06/16 05:19:57;;;;;;;4.93;4.50;;;15.60;99.90;;;;;;6318590;28;20639;-71
2021/06/16 05:23:00;;;;;;;4.53;4.13;;;15.70;99.90;;;;;;6319467;28;20197;-71
2021/06/16 05:26:02;;;;;;;5.20;4.70;;;15.70;99.90;;;;;;6318604;28;20186;-71
2021/06/16 05:29:08;;;;;;;6.90;4.60;;;15.80;99.90;;;;;;6319324;28;20512;-71
2021/06/16 05:32:11;;;;;;;5.83;5.03;;;15.80;99.90;;;;;;6318313;28;20190;-71
2021/06/16 05:35:14;;;;;;;4.57;4.17;;;15.90;99.90;;;;;;6318565;28;20202;-71
2021/06/16 05:38:16;;;;;;;5.20;4.37;;;16.00;99.90;;;;;;6319226;28;20574;-71
2021/06/16 05:41:18;;;;;;;5.10;4.60;;;16.00;99.90;;;;;;6319555;28;20319;-71
2021/06/16 05:44:20;;;;;;;4.47;4.07;;;16.10;99.90;;;;;;6318945;28;20567;-71
2021/06/16 05:47:24;;;;;;;5.10;4.60;;;16.10;99.90;;;;;;6319827;28;20291;-71
2021/06/16 05:50:26;;;;;;;5.87;4.27;;;16.10;99.90;;;;;;6318393;28;20691;-71
2021/06/16 05:53:29;;;;;;;5.03;4.30;;;16.00;99.90;;;;;;6317813;28;20198;-71
2021/06/16 05:56:31;;;;;;;6.60;4.83;;;16.00;99.90;;;;;;6319227;28;20211;-71
2021/06/16 05:59:33;;;;;;;4.77;4.30;;;16.10;99.90;;;;;;6318986;28;20198;-71
2021/06/16 06:02:37;;;;;;;7.93;4.90;;;16.00;99.90;;;;;;6319057;28;20319;-71
2021/06/16 06:05:39;;;;;;;7.37;5.03;;;16.10;99.90;;;;;;6319420;28;20213;-71
2021/06/16 06:08:41;;;;;;;8.40;5.20;;;16.10;99.90;;;;;;6318819;28;20209;-71
2021/06/16 06:11:44;;;;;;;5.53;5.00;;;16.20;99.90;;;;;;6317827;28;20234;-71
2021/06/16 06:14:46;;;;;;;4.87;4.37;;;16.20;99.90;;;;;;6321082;28;20205;-71
2021/06/16 06:17:50;;;;;;;5.00;4.40;;;16.40;99.90;;;;;;6324403;28;20716;-71
2021/06/16 06:20:52;;;;;;;5.67;4.67;;;16.50;99.90;;;;;;6323700;28;20216;-71
2021/06/16 06:23:54;;;;;;;7.53;4.37;;;16.70;99.90;;;;;;6322727;28;20188;-71
2021/06/16 06:26:57;;;;;;;3.93;3.63;;;16.80;99.90;;;;;;6324165;28;20280;-71
2021/06/16 06:29:59;;;;;;;4.47;3.70;;;17.00;99.90;;;;;;6324199;28;20312;-71
2021/06/16 06:33:01;;;;;;;5.37;3.93;;;17.20;99.90;;;;;;6322719;28;20273;-71
2021/06/16 06:36:04;;;;;;;4.73;3.60;;;17.40;99.90;;;;;;6323425;28;20205;-71
2021/06/16 06:39:06;;;;;;;3.57;3.23;;;17.60;99.90;;;;;;6323885;28;20649;-71
2021/06/16 06:42:08;;;;;;;4.90;3.40;;;17.90;99.90;;;;;;6323837;28;20341;-71
2021/06/16 06:45:11;;;;;;;5.83;3.87;;;18.20;99.90;;;;;;6323740;28;20541;-71
2021/06/16 06:48:14;;;;;;;4.20;2.73;;;18.60;99.90;;;;;;6322383;28;20680;-71
2021/06/16 06:51:16;;;;;;;3.20;2.90;;;19.00;99.90;;;;;;6321890;28;20620;-71
2021/06/16 06:54:18;;;;;;;3.53;3.00;;;19.40;99.90;;;;;;6324032;28;20194;-71
2021/06/16 06:57:21;;;;;;;4.30;3.67;;;19.70;99.90;;;;;;6323368;28;20196;-71
2021/06/16 07:00:23;;;;;;;5.50;3.90;;;20.00;99.90;;;;;;6322890;28;20277;-71
2021/06/16 07:03:26;;;;;;;5.27;3.13;;;20.30;99.90;;;;;;6323622;28;20183;-71
2021/06/16 07:06:30;;;;;;;4.27;2.80;;;20.50;99.90;;;;;;6322916;28;20244;-71
2021/06/16 07:09:33;;;;;;;5.13;3.10;;;20.80;99.90;;;;;;6321612;28;20197;-71
2021/06/16 07:12:35;;;;;;;4.63;3.63;;;21.20;99.90;;;;;;6321169;28;20574;-71
2021/06/16 07:15:38;;;;;;;8.10;3.30;;;21.50;99.70;;;;;;6323043;28;20201;-71
2021/06/16 07:18:40;;;;;;;5.03;3.17;;;21.80;98.90;;;;;;6321689;28;20586;-71
2021/06/16 07:21:42;;;;;;;4.40;2.90;;;22.20;97.20;;;;;;6321138;28;20281;-71
2021/06/16 07:24:45;;;;;;;3.20;2.67;;;22.50;95.00;;;;;;6320850;28;20178;-71
2021/06/16 07:27:48;;;;;;;4.83;3.50;;;22.90;93.40;;;;;;6320179;28;20199;-71
2021/06/16 07:30:50;;;;;;;4.40;2.90;;;23.30;90.60;;;;;;6322436;28;20189;-71
2021/06/16 07:33:52;;;;;;;4.60;2.93;;;23.60;90.40;;;;;;6322358;28;20194;-71
2021/06/16 07:36:55;;;;;;;4.30;3.20;;;24.00;88.00;;;;;;6321837;28;20210;-71
2021/06/16 07:39:57;;;;;;;3.70;2.83;;;24.30;84.10;;;;;;6322215;28;20658;-71
2021/06/16 07:43:00;;;;;;;3.87;2.60;;;24.60;83.50;;;;;;6321622;28;20229;-71
2021/06/16 07:46:02;;;;;;;3.20;2.80;;;24.90;82.30;;;;;;6322132;28;20186;-71
2021/06/16 07:49:05;;;;;;;3.73;3.00;;;25.20;78.90;;;;;;6321161;28;20186;-71
2021/06/16 07:52:08;;;;;;;6.73;3.83;;;25.50;73.90;;;;;;6321426;28;20185;-71
2021/06/16 07:55:10;;;;;;;3.83;3.40;;;25.50;65.90;;;;;;6320747;28;20212;-71
2021/06/16 07:58:12;;;;;;;4.70;3.23;;;25.70;70.00;;;;;;6320124;28;20575;-71
2021/06/16 08:01:16;;;;;;;4.30;3.22;;;26.00;67.60;;;;;;6321888;28;20204;-71
2021/06/16 08:04:22;;;;;;;5.25;2.97;;;26.30;68.00;;;;;;6320256;28;20189;-71
2021/06/16 08:07:25;;;;;;;4.50;3.13;;;26.60;64.90;;;;;;6320507;28;20273;-71
2021/06/16 08:10:30;;;;;;;3.97;3.03;;;26.80;60.90;;;;;;6320279;28;20221;-71
2021/06/16 08:13:33;;;;;;;4.30;2.85;;;27.20;63.30;;;;;;6319803;28;20684;-71
2021/06/16 08:16:35;;;;;;;5.43;3.30;;;27.50;60.40;;;;;;6321632;28;20545;-71
2021/06/16 08:19:37;;;;;;;3.97;3.20;;;27.70;58.50;;;;;;6321135;28;20186;-71
2021/06/16 08:22:40;;;;;;;3.85;3.30;;;28.00;59.80;;;;;;6321294;28;20210;-71
2021/06/16 08:25:43;;;;;;;5.75;3.03;;;28.20;57.50;;;;;;6321504;28;20228;-71
2021/06/16 08:28:45;;;;;;;3.72;3.13;;;28.50;57.40;;;;;;6319501;28;20413;-71
2021/06/16 08:31:47;;;;;;;4.63;3.55;;;28.60;55.00;;;;;;6320023;28;20186;-71
2021/06/16 08:34:49;;;;;;;3.75;3.00;;;28.80;54.90;;;;;;6320684;28;20308;-71
2021/06/16 08:37:52;;;;;;;4.60;3.15;;;28.90;51.40;;;;;;6319309;28;20583;-71
2021/06/16 08:40:54;;;;;;;3.78;3.17;;;29.00;48.80;;;;;;6319695;28;20308;-71
2021/06/16 08:43:57;;;;;;;4.35;3.10;;;28.60;48.50;;;;;;6318914;28;20193;-71
2021/06/16 08:47:00;;;;;;;4.35;2.80;;;28.70;51.70;;;;;;6319501;28;20209;-72
2021/06/16 08:50:08;;;;;;;4.63;3.00;;;29.00;53.60;;;;;;6320520;28;20187;-72
2021/06/16 08:53:11;;;;;;;5.53;3.22;;;29.40;50.60;;;;;;6320949;28;20182;-72
2021/06/16 08:56:13;;;;;;;2.95;2.63;;;29.50;50.80;;;;;;6320459;28;20251;-72
2021/06/16 08:59:15;;;;;;;5.07;3.25;;;29.70;50.60;;;;;;6320870;28;20555;-72
2021/06/16 09:02:18;;;;;;;5.13;2.83;;;30.10;52.30;;;;;;6320560;28;20292;-72
2021/06/16 09:05:35;;;;;;;3.60;2.92;;;30.50;51.10;;;;;;6320337;28;20185;-72
2021/06/16 09:09:05;;;;;;;3.97;2.75;;;31.00;50.80;;;;;;6321075;28;20174;-72
2021/06/16 09:12:08;;;;;;;4.07;3.10;;;31.30;51.90;;;;;;6319843;28;20221;-72
2021/06/16 09:15:16;;;;;;;4.28;2.90;;;31.60;51.40;;;;;;6319311;28;20323;-72
2021/06/16 09:18:18;;;;;;;5.32;2.92;;;31.80;47.00;;;;;;6302669;28;20190;-72
2021/06/16 09:21:40;;;;;;;7.30;3.55;;;31.90;49.00;;;;;;6319174;28;20677;-72
2021/06/16 09:24:51;;;;;;;5.82;3.58;;;32.10;47.10;;;;;;6320276;28;20316;-72
2021/06/16 09:27:53;;;;;;;4.00;3.40;;;31.20;43.60;;;;;;6318630;28;20194;-72
2021/06/16 09:30:58;;;;;;;6.22;3.15;;;30.80;44.90;;;;;;6319173;28;20295;-72
2021/06/16 09:34:10;;;;;;;6.43;3.33;;;31.20;47.60;;;;;;6319941;28;20656;-72
2021/06/16 09:37:12;;;;;;;3.78;2.90;;;31.50;46.60;;;;;;6320368;28;20277;-72
2021/06/16 09:40:34;;;;;;;4.45;3.28;;;31.80;48.10;;;;;;6319097;28;20674;-72
2021/06/16 09:43:38;;;;;;;4.55;3.53;;;32.20;48.80;;;;;;6320656;28;20542;-72
2021/06/16 09:46:40;;;;;;;7.30;3.78;;;32.80;47.30;;;;;;6320783;28;20190;-72
2021/06/16 09:49:47;;;;;;;4.85;3.55;;;32.90;44.50;;;;;;6319492;28;20315;-72
2021/06/16 09:52:50;;;;;;;5.47;3.97;;;32.70;44.40;;;;;;6321060;28;20186;-72
2021/06/16 09:55:52;;;;;;;5.93;4.18;;;32.20;42.90;;;;;;6318835;28;20194;-72
2021/06/16 09:58:55;;;;;;;4.15;3.75;;;32.00;43.40;;;;;;6318739;28;20292;-72
2021/06/16 10:01:57;;;;;;;5.47;3.80;;;32.40;43.50;;;;;;6319730;28;20206;-72
2021/06/16 10:05:03;;;;;;;5.75;3.53;;;32.70;43.90;;;;;;6320207;28;20190;-72
2021/06/16 10:08:23;;;;;;;7.13;4.07;;;32.80;42.40;;;;;;6319775;28;20652;-72
2021/06/16 10:11:28;;;;;;;5.13;3.40;;;33.00;42.00;;;;;;6320056;28;20233;-72
2021/06/16 10:14:31;;;;;;;8.38;3.60;;;32.80;42.90;;;;;;6319408;28;20193;-72
2021/06/16 10:17:34;;;;;;;5.88;4.00;;;33.10;43.50;;;;;;6320067;28;20673;-72
2021/06/16 10:20:37;;;;;;;5.53;3.50;;;32.70;43.10;;;;;;6320393;28;20182;-72
2021/06/16 10:23:40;;;;;;;5.88;3.70;;;32.70;42.20;;;;;;6319109;28;20700;-72
2021/06/16 10:26:43;;;;;;;4.00;3.60;;;32.80;42.20;;;;;;6320126;28;20193;-72
2021/06/16 10:29:48;;;;;;;5.65;3.90;;;33.00;44.20;;;;;;6319699;28;20190;-72
2021/06/16 10:32:51;;;;;;;5.90;3.75;;;33.10;42.40;;;;;;6320503;28;20227;-72
2021/06/16 10:36:16;;;;;;;8.90;3.70;;;33.20;43.30;;;;;;6320706;28;20560;-72
2021/06/16 10:39:18;;;;;;;9.20;4.18;;;33.40;41.70;;;;;;6320724;28;20193;-72
2021/06/16 10:42:20;;;;;;;4.70;3.70;;;33.60;41.00;;;;;;6319678;28;20224;-72
2021/06/16 10:45:27;;;;;;;6.70;4.00;;;33.60;41.70;;;;;;6320098;28;20328;-72
2021/06/16 10:48:53;;;;;;;4.70;3.08;;;33.30;40.60;;;;;;6319837;28;20261;-72
2021/06/16 10:52:00;;;;;;;10.85;4.53;;;33.30;40.20;;;;;;6318820;28;20572;-72
2021/06/16 10:55:07;;;;;;;7.72;4.20;;;33.60;39.80;;;;;;6320158;28;20175;-72
2021/06/16 10:58:16;;;;;;;8.73;3.80;;;33.50;40.50;;;;;;6318726;28;20210;-72
2021/06/16 11:01:21;;;;;;;7.35;4.10;;;33.20;40.60;;;;;;6323489;28;20200;-72
2021/06/16 11:04:30;;;;;;;4.63;3.45;;;32.70;40.20;;;;;;6323814;28;20189;-72
2021/06/16 11:07:32;;;;;;;6.70;3.85;;;32.60;40.40;;;;;;6323655;28;20182;-72
2021/06/16 11:10:55;;;;;;;7.40;3.50;;;33.00;41.00;;;;;;6324308;28;20224;-72
2021/06/16 11:13:57;;;;;;;5.43;3.42;;;33.80;41.90;;;;;;6324525;28;20684;-72
2021/06/16 11:17:03;;;;;;;6.53;3.65;;;33.90;39.00;;;;;;6322652;28;20194;-72
2021/06/16 11:20:07;;;;;;;6.38;3.40;;;34.00;39.80;;;;;;6324301;28;20653;-72
2021/06/16 11:23:21;;;;;;;6.43;3.33;;;34.10;39.80;;;;;;6322903;28;20619;-72
2021/06/16 11:26:43;;;;;;;4.90;3.50;;;34.60;40.70;;;;;;6323057;28;20182;-72
2021/06/16 11:30:08;;;;;;;5.57;3.53;;;34.80;37.80;;;;;;6322158;28;20289;-72
2021/06/16 11:33:16;;;;;;;7.25;2.92;;;35.00;39.80;;;;;;6322504;28;20186;-71
2021/06/16 11:36:27;;;;;;;5.07;3.30;;;35.30;39.80;;;;;;6322935;28;20210;-72
2021/06/16 11:39:30;;;;;;;4.85;3.38;;;35.40;38.90;;;;;;6322007;28;20174;-72
2021/06/16 11:42:32;;;;;;;6.70;3.28;;;35.30;37.40;;;;;;6322533;28;20232;-72
2021/06/16 11:45:35;;;;;;;4.45;3.35;;;35.30;37.40;;;;;;6324285;28;20186;-72
2021/06/16 11:48:38;;;;;;;5.55;3.40;;;35.10;37.70;;;;;;6322586;28;20212;-72
2021/06/16 11:51:46;;;;;;;8.13;3.30;;;34.80;37.00;;;;;;6323745;28;20221;-72
2021/06/16 11:54:49;;;;;;;4.45;3.15;;;35.00;38.20;;;;;;6323179;28;21059;-72
2021/06/16 11:57:51;;;;;;;7.70;2.90;;;35.40;35.90;;;;;;6322803;28;20296;-72
2021/06/16 12:01:04;;;;;;;3.35;2.85;;;35.20;35.60;;;;;;6322293;28;20319;-72
2021/06/16 12:04:13;;;;;;;4.97;3.05;;;34.70;36.20;;;;;;6322940;28;20256;-72
2021/06/16 12:07:21;;;;;;;3.83;2.65;;;33.80;36.70;;;;;;6323566;28;20178;-72
2021/06/16 12:10:25;;;;;;;5.30;2.97;;;33.60;38.10;;;;;;6321330;28;20611;-72
2021/06/16 12:13:28;;;;;;;6.60;3.28;;;34.00;37.70;;;;;;6320638;28;20650;-72
2021/06/16 12:16:35;;;;;;;5.05;2.55;;;34.30;37.10;;;;;;6322591;28;20490;-72
2021/06/16 12:19:39;;;;;;;2.90;2.30;;;34.30;37.20;;;;;;6322653;28;20209;-72
2021/06/16 12:22:41;;;;;;;5.13;2.78;;;34.30;34.30;;;;;;6322111;28;20221;-72
2021/06/16 12:25:44;;;;;;;3.78;2.22;;;34.40;35.20;;;;;;6321957;28;20194;-72
2021/06/16 12:28:49;;;;;;;2.85;2.40;;;34.50;33.50;;;;;;6321972;28;20209;-72
2021/06/16 12:31:54;;;;;;;3.78;2.17;;;34.50;34.80;;;;;;6321881;28;20227;-72
2021/06/16 12:35:11;;;;;;;5.63;2.80;;;34.90;34.70;;;;;;6322697;28;20192;-72
2021/06/16 12:38:14;;;;;;;4.38;2.67;;;35.50;34.80;;;;;;6322321;28;20701;-72
2021/06/16 12:41:41;;;;;;;5.95;2.95;;;35.70;35.50;;;;;;6321735;28;20201;-72
2021/06/16 12:44:44;;;;;;;2.85;2.65;;;35.80;35.00;;;;;;6322382;28;20190;-72
2021/06/16 12:47:46;;;;;;;3.58;2.42;;;35.80;34.70;;;;;;6321785;28;20190;-72
2021/06/16 12:50:54;;;;;;;3.25;2.47;;;35.70;33.40;;;;;;6322197;28;20613;-72
2021/06/16 12:53:56;;;;;;;3.67;2.50;;;34.90;35.00;;;;;;6321555;28;20175;-72
2021/06/16 12:57:19;;;;;;;5.88;2.70;;;34.90;35.20;;;;;;6321473;28;20751;-72
2021/06/16 13:00:28;;;;;;;2.85;2.30;;;35.30;34.80;;;;;;6321919;28;20654;-72
2021/06/16 13:03:31;;;;;;;4.82;2.35;;;35.70;35.00;;;;;;6322133;28;20198;-72
2021/06/16 13:06:34;;;;;;;3.28;2.17;;;36.30;34.30;;;;;;6337806;28;20205;-72
2021/06/16 13:09:36;;;;;;;4.47;2.03;;;36.60;32.80;;;;;;6320486;28;20206;-72
2021/06/16 13:12:49;;;;;;;3.83;2.25;;;36.80;32.60;;;;;;6322156;28;20190;-72
2021/06/16 13:15:52;;;;;;;4.15;2.15;;;37.30;32.80;;;;;;6321410;28;20574;-72
2021/06/16 13:19:06;;;;;;;3.97;2.30;;;37.70;31.80;;;;;;6321548;28;20182;-72
2021/06/16 13:22:09;;;;;;;2.70;2.30;;;37.80;31.40;;;;;;6320976;28;20681;-72
2021/06/16 13:25:22;;;;;;;3.97;2.25;;;37.70;31.00;;;;;;6321568;28;20217;-72
2021/06/16 13:28:30;;;;;;;5.25;2.28;;;37.50;31.30;;;;;;6322145;28;20269;-72
2021/06/16 13:31:34;;;;;;;2.65;2.20;;;37.30;31.50;;;;;;6321628;28;20182;-72
2021/06/16 13:34:39;;;;;;;2.28;2.03;;;37.20;31.60;;;;;;6320729;28;20194;-72
2021/06/16 13:37:41;;;;;;;3.45;2.00;;;36.40;30.40;;;;;;6321277;28;20213;-72
2021/06/16 13:40:44;;;;;;;4.43;2.08;;;35.30;31.30;;;;;;6321566;28;20240;-72
2021/06/16 13:43:46;;;;;;;3.35;2.00;;;35.40;32.20;;;;;;6321673;28;20202;-72
2021/06/16 13:46:49;;;;;;;2.88;1.90;;;36.10;32.40;;;;;;6320997;28;20599;-72
2021/06/16 13:49:51;;;;;;;3.15;2.03;;;36.40;32.30;;;;;;6321253;28;20323;-72
2021/06/16 13:52:53;;;;;;;6.50;2.33;;;37.00;31.30;;;;;;6320494;28;20185;-72
2021/06/16 13:55:57;;;;;;;2.67;2.10;;;37.60;30.90;;;;;;6322464;28;20339;-72
2021/06/16 13:58:59;;;;;;;4.25;2.10;;;38.50;30.90;;;;;;6321336;28;20220;-72
2021/06/16 14:02:01;;;;;;;4.03;2.40;;;39.20;30.10;;;;;;6318718;28;20587;-72
2021/06/16 14:05:05;;;;;;;4.10;2.17;;;39.70;29.60;;;;;;6320078;28;20258;-72
2021/06/16 14:08:11;;;;;;;4.72;2.00;;;39.70;29.50;;;;;;6302591;28;20596;-72
2021/06/16 14:11:13;;;;;;;2.58;2.00;;;40.00;29.20;;;;;;6320384;28;20218;-72
2021/06/16 14:14:16;;;;;;;3.35;2.17;;;40.50;29.90;;;;;;6320181;28;20198;-72
2021/06/16 14:17:18;;;;;;;2.63;1.90;;;40.60;29.20;;;;;;6319475;28;20196;-73
2021/06/16 14:20:20;;;;;;;3.30;2.10;;;40.90;29.70;;;;;;6321607;28;20186;-73
2021/06/16 14:23:22;;;;;;;5.78;2.20;;;40.80;28.40;;;;;;6318820;28;20202;-73
2021/06/16 14:26:25;;;;;;;4.75;2.10;;;41.00;28.50;;;;;;6320921;28;20556;-73
2021/06/16 14:29:27;;;;;;;3.63;2.20;;;41.40;28.50;;;;;;6320546;28;20633;-72
2021/06/16 14:32:38;;;;;;;3.75;1.90;;;41.00;28.00;;;;;;6321007;28;20186;-72
2021/06/16 14:35:43;;;;;;;4.10;2.22;;;40.30;29.10;;;;;;6323025;28;20175;-72
2021/06/16 14:38:45;;;;;;;3.25;2.10;;;40.20;28.70;;;;;;6324960;28;20197;-72
2021/06/16 14:41:47;;;;;;;4.30;2.47;;;40.60;29.00;;;;;;6324655;28;20699;-72
2021/06/16 14:44:49;;;;;;;4.50;2.20;;;41.20;28.40;;;;;;6323689;28;20768;-72
2021/06/16 14:47:52;;;;;;;1.92;1.77;;;41.40;28.40;;;;;;6324340;28;20228;-72
2021/06/16 14:50:55;;;;;;;2.97;2.00;;;41.80;28.10;;;;;;6326483;28;20182;-72
2021/06/16 14:53:57;;;;;;;5.65;2.05;;;42.30;28.50;;;;;;6325341;28;20197;-72
2021/06/16 14:56:59;;;;;;;6.53;2.00;;;42.90;30.00;;;;;;6324200;28;20232;-73
2021/06/16 15:00:03;;;;;;;4.90;2.00;;;43.20;28.80;;;;;;6323427;28;20570;-73
2021/06/16 15:03:17;;;;;;;3.17;2.05;;;43.40;28.70;;;;;;6324179;28;20199;-73
2021/06/16 15:06:19;;;;;;;4.30;1.83;;;43.30;27.50;;;;;;6324503;28;20626;-72
2021/06/16 15:09:22;;;;;;;3.97;1.95;;;43.20;28.30;;;;;;6324888;28;20193;-72
2021/06/16 15:12:24;;;;;;;3.28;1.95;;;43.00;27.60;;;;;;6325759;28;20272;-72
2021/06/16 15:15:26;;;;;;;3.67;1.85;;;42.80;27.30;;;;;;6323960;28;20201;-72
2021/06/16 15:18:29;;;;;;;3.58;2.20;;;43.00;27.10;;;;;;6325702;28;20641;-72
2021/06/16 15:21:31;;;;;;;4.60;1.85;;;43.20;27.30;;;;;;6324066;28;20279;-72
2021/06/16 15:24:33;;;;;;;4.30;2.30;;;43.30;28.20;;;;;;6324297;28;20213;-72
2021/06/16 15:27:38;;;;;;;5.90;2.00;;;43.30;27.90;;;;;;6325131;28;20197;-72
2021/06/16 15:30:40;;;;;;;3.85;2.00;;;43.40;28.90;;;;;;6324653;28;20235;-72
2021/06/16 15:33:46;;;;;;;4.70;1.50;;;43.20;26.70;;;;;;6324687;28;20278;-72
2021/06/16 15:36:49;;;;;;;2.22;1.80;;;43.30;27.80;;;;;;6325185;28;20214;-72
2021/06/16 15:39:51;;;;;;;3.83;1.90;;;43.00;27.20;;;;;;6323458;28;20206;-72
2021/06/16 15:42:53;;;;;;;6.13;1.92;;;42.60;29.20;;;;;;6323544;28;20271;-72
2021/06/16 15:45:55;;;;;;;5.72;1.90;;;42.70;30.00;;;;;;6321605;28;20559;-72
2021/06/16 15:48:58;;;;;;;2.28;1.65;;;42.90;30.60;;;;;;6321349;28;20198;-72
2021/06/16 15:52:00;;;;;;;4.03;1.63;;;42.90;28.00;;;;;;6321331;28;20758;-72
2021/06/16 15:55:03;;;;;;;4.03;1.92;;;42.70;27.20;;;;;;6322293;28;20239;-72
2021/06/16 15:58:07;;;;;;;3.25;1.63;;;42.70;29.20;;;;;;6321128;28;20649;-72
2021/06/16 16:01:10;;;;;;;2.45;1.60;;;42.50;30.00;;;;;;6320753;28;20774;-72
2021/06/16 16:04:12;;;;;;;2.45;1.67;;;42.50;30.90;;;;;;6321818;28;20288;-72